sensor_id;sensor_type;location;lat;lon;timestamp;pressure;altitude;pressure_sealevel;temperature;humidity
56400;BME280;42298;53.638;9.876;2023-02-18T00:00:05;101389.59;;;10.38;62.48
56400;BME280;42298;53.638;9.876;2023-02-18T00:02:32;101386.75;;;10.43;62.32
56400;BME280;42298;53.638;9.876;2023-02-18T00:04:59;101395.56;;;10.45;62.21
56400;BME280;42298;53.638;9.876;2023-02-18T00:07:25;101395.84;;;10.44;61.85
56400;BME280;42298;53.638;9.876;2023-02-18T00:09:53;101386.16;;;10.46;62.15
56400;BME280;42298;53.638;9.876;2023-02-18T00:12:18;101398.97;;;10.61;62.04
56400;BME280;42298;53.638;9.876;2023-02-18T00:14:43;101388.75;;;10.61;62.27
56400;BME280;42298;53.638;9.876;2023-02-18T00:17:08;101359.75;;;10.45;61.56
56400;BME280;42298;53.638;9.876;2023-02-18T00:19:34;101392.03;;;10.63;61.87
56400;BME280;42298;53.638;9.876;2023-02-18T00:22:00;101408.03;;;10.61;61.97
56400;BME280;42298;53.638;9.876;2023-02-18T00:24:27;101381.44;;;10.52;61.48
56400;BME280;42298;53.638;9.876;2023-02-18T00:26:52;101391.38;;;10.48;62.07
56400;BME280;42298;53.638;9.876;2023-02-18T00:29:18;101412.72;;;10.61;62.04
56400;BME280;42298;53.638;9.876;2023-02-18T00:31:44;101419.91;;;10.57;62.20
56400;BME280;42298;53.638;9.876;2023-02-18T00:34:11;101374.56;;;10.26;61.56
56400;BME280;42298;53.638;9.876;2023-02-18T00:36:37;101418.41;;;10.46;62.03
56400;BME280;42298;53.638;9.876;2023-02-18T00:39:07;101398.34;;;10.40;61.93
56400;BME280;42298;53.638;9.876;2023-02-18T00:41:34;101423.34;;;10.49;61.58
56400;BME280;42298;53.638;9.876;2023-02-18T00:43:59;101401.53;;;10.29;61.89
56400;BME280;42298;53.638;9.876;2023-02-18T00:46:28;101428.56;;;10.50;61.67
56400;BME280;42298;53.638;9.876;2023-02-18T00:48:54;101431.53;;;10.54;61.62
56400;BME280;42298;53.638;9.876;2023-02-18T00:51:20;101385.41;;;10.17;61.63
56400;BME280;42298;53.638;9.876;2023-02-18T00:53:46;101429.59;;;10.54;61.58
56400;BME280;42298;53.638;9.876;2023-02-18T00:56:11;101438.31;;;10.61;61.54
56400;BME280;42298;53.638;9.876;2023-02-18T00:58:37;101426.03;;;10.54;61.58
56400;BME280;42298;53.638;9.876;2023-02-18T01:01:04;101429.75;;;10.63;61.52
56400;BME280;42298;53.638;9.876;2023-02-18T01:03:30;101411.75;;;10.52;61.31
56400;BME280;42298;53.638;9.876;2023-02-18T01:05:55;101426.72;;;10.64;61.58
56400;BME280;42298;53.638;9.876;2023-02-18T01:08:21;101430.34;;;10.60;61.77
56400;BME280;42298;53.638;9.876;2023-02-18T01:10:48;101418.34;;;10.51;61.72
56400;BME280;42298;53.638;9.876;2023-02-18T01:13:14;101426.59;;;10.51;61.70
56400;BME280;42298;53.638;9.876;2023-02-18T01:15:41;101426.59;;;10.51;61.93
56400;BME280;42298;53.638;9.876;2023-02-18T01:18:07;101431.19;;;10.37;62.41
56400;BME280;42298;53.638;9.876;2023-02-18T01:20:36;101410.16;;;10.22;62.34
56400;BME280;42298;53.638;9.876;2023-02-18T01:23:02;101428.47;;;10.32;62.70
56400;BME280;42298;53.638;9.876;2023-02-18T01:25:28;101425.44;;;10.33;62.58
56400;BME280;42298;53.638;9.876;2023-02-18T01:27:54;101398.34;;;10.17;63.05
56400;BME280;42298;53.638;9.876;2023-02-18T01:30:19;101387.16;;;10.03;62.87
56400;BME280;42298;53.638;9.876;2023-02-18T01:32:46;101439.22;;;10.28;63.68
56400;BME280;42298;53.638;9.876;2023-02-18T01:35:14;101439.19;;;10.33;62.83
56400;BME280;42298;53.638;9.876;2023-02-18T01:37:40;101422.97;;;10.32;63.00
56400;BME280;42298;53.638;9.876;2023-02-18T01:40:07;101434.28;;;10.30;62.78
56400;BME280;42298;53.638;9.876;2023-02-18T01:42:35;101426.16;;;10.15;63.88
56400;BME280;42298;53.638;9.876;2023-02-18T01:48:06;101428.91;;;10.15;63.33
56400;BME280;42298;53.638;9.876;2023-02-18T01:50:36;101427.88;;;10.11;63.04
56400;BME280;42298;53.638;9.876;2023-02-18T01:53:03;101430.69;;;10.01;64.13
56400;BME280;42298;53.638;9.876;2023-02-18T01:55:30;101406.28;;;9.90;64.15
56400;BME280;42298;53.638;9.876;2023-02-18T01:57:55;101399.69;;;9.91;63.98
56400;BME280;42298;53.638;9.876;2023-02-18T02:00:21;101393.69;;;9.84;63.82
56400;BME280;42298;53.638;9.876;2023-02-18T02:02:50;101428.44;;;10.08;64.23
56400;BME280;42298;53.638;9.876;2023-02-18T02:05:17;101412.22;;;10.07;64.47
56400;BME280;42298;53.638;9.876;2023-02-18T02:07:43;101419.91;;;10.10;63.83
56400;BME280;42298;53.638;9.876;2023-02-18T02:10:11;101406.72;;;10.02;63.96
56400;BME280;42298;53.638;9.876;2023-02-18T02:12:58;101413.22;;;10.16;63.96
56400;BME280;42298;53.638;9.876;2023-02-18T02:35:07;101395.09;;;10.15;63.04
56400;BME280;42298;53.638;9.876;2023-02-18T02:37:43;101407.41;;;10.22;63.94
56400;BME280;42298;53.638;9.876;2023-02-18T02:40:28;101406.56;;;10.22;63.42
56400;BME280;42298;53.638;9.876;2023-02-18T02:43:23;101396.69;;;10.21;63.09
56400;BME280;42298;53.638;9.876;2023-02-18T02:45:58;101395.09;;;10.15;63.58
56400;BME280;42298;53.638;9.876;2023-02-18T02:48:37;101397.75;;;10.20;63.34
56400;BME280;42298;53.638;9.876;2023-02-18T02:51:37;101400.31;;;10.16;63.40
56400;BME280;42298;53.638;9.876;2023-02-18T02:54:18;101403.63;;;10.13;63.68
56400;BME280;42298;53.638;9.876;2023-02-18T02:56:44;101394.59;;;10.08;63.72
56400;BME280;42298;53.638;9.876;2023-02-18T02:59:21;101390.88;;;10.22;63.50
56400;BME280;42298;53.638;9.876;2023-02-18T03:10:11;101385.19;;;10.37;62.83
56400;BME280;42298;53.638;9.876;2023-02-18T03:18:30;101384.72;;;10.30;63.63
56400;BME280;42298;53.638;9.876;2023-02-18T03:21:03;101385.53;;;10.31;62.99
56400;BME280;42298;53.638;9.876;2023-02-18T03:23:57;101363.41;;;10.17;63.02
56400;BME280;42298;53.638;9.876;2023-02-18T03:26:27;101383.88;;;10.30;63.07
56400;BME280;42298;53.638;9.876;2023-02-18T03:28:57;101396.00;;;10.29;63.43
56400;BME280;42298;53.638;9.876;2023-02-18T03:31:26;101353.72;;;10.20;63.49
56400;BME280;42298;53.638;9.876;2023-02-18T03:33:57;101388.06;;;10.27;63.25
56400;BME280;42298;53.638;9.876;2023-02-18T03:36:24;101382.53;;;10.27;63.68
56400;BME280;42298;53.638;9.876;2023-02-18T03:38:55;101388.22;;;10.36;63.55
56400;BME280;42298;53.638;9.876;2023-02-18T03:41:22;101387.94;;;10.37;63.36
56400;BME280;42298;53.638;9.876;2023-02-18T03:43:50;101370.38;;;10.33;63.21
56400;BME280;42298;53.638;9.876;2023-02-18T03:46:15;101373.66;;;10.35;63.23
56400;BME280;42298;53.638;9.876;2023-02-18T03:48:41;101383.84;;;10.35;63.59
56400;BME280;42298;53.638;9.876;2023-02-18T03:51:06;101340.84;;;10.15;63.01
56400;BME280;42298;53.638;9.876;2023-02-18T03:53:32;101379.66;;;10.37;63.04
56400;BME280;42298;53.638;9.876;2023-02-18T03:55:57;101382.53;;;10.27;63.15
56400;BME280;42298;53.638;9.876;2023-02-18T03:58:22;101379.00;;;10.27;62.62
56400;BME280;42298;53.638;9.876;2023-02-18T04:00:48;101352.09;;;10.19;62.46
56400;BME280;42298;53.638;9.876;2023-02-18T04:03:15;101371.69;;;10.36;62.19
56400;BME280;42298;53.638;9.876;2023-02-18T04:05:40;101375.81;;;10.38;62.14
56400;BME280;42298;53.638;9.876;2023-02-18T04:08:05;101375.00;;;10.38;62.24
56400;BME280;42298;53.638;9.876;2023-02-18T04:10:31;101360.59;;;10.46;62.51
56400;BME280;42298;53.638;9.876;2023-02-18T04:12:56;101364.03;;;10.56;62.39
56400;BME280;42298;53.638;9.876;2023-02-18T04:15:21;101362.63;;;10.59;62.85
56400;BME280;42298;53.638;9.876;2023-02-18T04:17:47;101318.22;;;10.42;63.35
56400;BME280;42298;53.638;9.876;2023-02-18T04:20:12;101346.34;;;10.62;63.54
56400;BME280;42298;53.638;9.876;2023-02-18T04:22:37;101345.50;;;10.62;63.77
56400;BME280;42298;53.638;9.876;2023-02-18T04:25:03;101307.78;;;10.39;63.64
56400;BME280;42298;53.638;9.876;2023-02-18T04:27:28;101332.09;;;10.55;64.06
56400;BME280;42298;53.638;9.876;2023-02-18T04:29:53;101336.19;;;10.58;64.39
56400;BME280;42298;53.638;9.876;2023-02-18T04:32:19;101324.13;;;10.54;64.31
56400;BME280;42298;53.638;9.876;2023-02-18T04:34:44;101298.78;;;10.33;64.07
56400;BME280;42298;53.638;9.876;2023-02-18T04:37:09;101320.09;;;10.46;64.61
56400;BME280;42298;53.638;9.876;2023-02-18T04:39:35;101308.16;;;10.32;64.54
56400;BME280;42298;53.638;9.876;2023-02-18T04:42:01;101314.13;;;10.39;64.36
56400;BME280;42298;53.638;9.876;2023-02-18T04:44:26;101286.63;;;10.16;64.65
56400;BME280;42298;53.638;9.876;2023-02-18T04:46:52;101289.38;;;10.16;64.68
56400;BME280;42298;53.638;9.876;2023-02-18T04:49:17;101305.00;;;10.20;64.45
56400;BME280;42298;53.638;9.876;2023-02-18T04:51:42;101318.88;;;10.34;64.56
56400;BME280;42298;53.638;9.876;2023-02-18T04:54:07;101323.25;;;10.35;64.78
56400;BME280;42298;53.638;9.876;2023-02-18T04:56:33;101314.00;;;10.26;64.71
56400;BME280;42298;53.638;9.876;2023-02-18T04:58:59;101310.63;;;10.34;64.92
56400;BME280;42298;53.638;9.876;2023-02-18T05:01:24;101269.66;;;10.09;65.07
56400;BME280;42298;53.638;9.876;2023-02-18T05:03:49;101323.38;;;10.48;64.96
56400;BME280;42298;53.638;9.876;2023-02-18T05:06:15;101288.06;;;10.32;64.91
56400;BME280;42298;53.638;9.876;2023-02-18T05:08:40;101316.16;;;10.52;64.75
56400;BME280;42298;53.638;9.876;2023-02-18T05:11:07;101282.03;;;10.30;64.91
56400;BME280;42298;53.638;9.876;2023-02-18T05:13:33;101309.91;;;10.47;65.18
56400;BME280;42298;53.638;9.876;2023-02-18T05:15:58;101280.09;;;10.30;65.03
56400;BME280;42298;53.638;9.876;2023-02-18T05:18:23;101307.38;;;10.50;65.41
56400;BME280;42298;53.638;9.876;2023-02-18T05:20:49;101294.22;;;10.47;65.31
56400;BME280;42298;53.638;9.876;2023-02-18T05:23:14;101309.84;;;10.52;65.24
56400;BME280;42298;53.638;9.876;2023-02-18T05:25:39;101304.09;;;10.48;65.64
56400;BME280;42298;53.638;9.876;2023-02-18T05:28:05;101301.03;;;10.50;65.88
56400;BME280;42298;53.638;9.876;2023-02-18T05:30:30;101302.38;;;10.52;65.98
56400;BME280;42298;53.638;9.876;2023-02-18T05:32:56;101292.19;;;10.53;65.86
56400;BME280;42298;53.638;9.876;2023-02-18T05:35:21;101295.00;;;10.48;65.66
56400;BME280;42298;53.638;9.876;2023-02-18T05:37:47;101291.91;;;10.54;65.94
56400;BME280;42298;53.638;9.876;2023-02-18T05:40:13;101282.66;;;10.45;66.50
56400;BME280;42298;53.638;9.876;2023-02-18T05:42:38;101255.31;;;10.30;66.25
56400;BME280;42298;53.638;9.876;2023-02-18T05:45:03;101277.22;;;10.40;66.57
56400;BME280;42298;53.638;9.876;2023-02-18T05:47:29;101247.94;;;10.26;66.93
56400;BME280;42298;53.638;9.876;2023-02-18T05:49:54;101266.19;;;10.40;66.59
56400;BME280;42298;53.638;9.876;2023-02-18T05:52:20;101270.06;;;10.39;66.58
56400;BME280;42298;53.638;9.876;2023-02-18T05:54:46;101281.31;;;10.43;67.41
56400;BME280;42298;53.638;9.876;2023-02-18T05:57:13;101269.25;;;10.39;67.07
56400;BME280;42298;53.638;9.876;2023-02-18T05:59:38;101284.13;;;10.38;67.15
56400;BME280;42298;53.638;9.876;2023-02-18T06:02:04;101243.13;;;10.18;67.01
56400;BME280;42298;53.638;9.876;2023-02-18T06:04:29;101259.41;;;10.33;67.21
56400;BME280;42298;53.638;9.876;2023-02-18T06:06:54;101268.88;;;10.45;67.08
56400;BME280;42298;53.638;9.876;2023-02-18T06:09:20;101264.81;;;10.43;66.88
56400;BME280;42298;53.638;9.876;2023-02-18T06:11:45;101251.34;;;10.41;67.61
56400;BME280;42298;53.638;9.876;2023-02-18T06:14:10;101251.63;;;10.40;66.71
56400;BME280;42298;53.638;9.876;2023-02-18T06:16:36;101217.66;;;10.26;66.92
56400;BME280;42298;53.638;9.876;2023-02-18T06:19:01;101229.66;;;10.35;67.37
56400;BME280;42298;53.638;9.876;2023-02-18T06:21:27;101178.88;;;10.04;67.15
56400;BME280;42298;53.638;9.876;2023-02-18T06:23:52;101214.63;;;10.27;67.22
56400;BME280;42298;53.638;9.876;2023-02-18T06:26:17;101213.19;;;10.30;67.58
56400;BME280;42298;53.638;9.876;2023-02-18T06:28:43;101217.81;;;10.34;67.36
56400;BME280;42298;53.638;9.876;2023-02-18T06:31:08;101178.00;;;10.08;67.01
56400;BME280;42298;53.638;9.876;2023-02-18T06:33:33;101171.69;;;10.08;67.04
56400;BME280;42298;53.638;9.876;2023-02-18T06:36:02;101202.38;;;10.38;67.35
56400;BME280;42298;53.638;9.876;2023-02-18T06:38:28;101204.66;;;10.31;67.29
56400;BME280;42298;53.638;9.876;2023-02-18T06:40:53;101199.91;;;10.37;67.07
56400;BME280;42298;53.638;9.876;2023-02-18T06:43:19;101193.50;;;10.41;66.96
56400;BME280;42298;53.638;9.876;2023-02-18T06:45:46;101178.19;;;10.35;67.20
56400;BME280;42298;53.638;9.876;2023-02-18T06:48:12;101171.53;;;10.36;66.60
56400;BME280;42298;53.638;9.876;2023-02-18T06:50:40;101177.72;;;10.47;67.00
56400;BME280;42298;53.638;9.876;2023-02-18T06:53:05;101162.03;;;10.47;67.09
56400;BME280;42298;53.638;9.876;2023-02-18T06:55:30;101171.75;;;10.58;66.92
56400;BME280;42298;53.638;9.876;2023-02-18T06:57:56;101147.97;;;10.49;66.92
56400;BME280;42298;53.638;9.876;2023-02-18T07:00:21;101150.78;;;10.62;66.21
56400;BME280;42298;53.638;9.876;2023-02-18T07:02:47;101141.09;;;10.65;66.92
56400;BME280;42298;53.638;9.876;2023-02-18T07:05:14;101116.53;;;10.50;66.28
56400;BME280;42298;53.638;9.876;2023-02-18T07:07:39;101140.47;;;10.68;66.81
56400;BME280;42298;53.638;9.876;2023-02-18T07:10:05;101128.25;;;10.74;66.74
56400;BME280;42298;53.638;9.876;2023-02-18T07:12:31;101098.88;;;10.69;66.26
56400;BME280;42298;53.638;9.876;2023-02-18T07:14:57;101137.13;;;11.03;66.06
56400;BME280;42298;53.638;9.876;2023-02-18T07:17:22;101143.31;;;10.95;66.39
56400;BME280;42298;53.638;9.876;2023-02-18T07:19:48;101112.75;;;10.78;66.06
56400;BME280;42298;53.638;9.876;2023-02-18T07:22:13;101122.31;;;10.99;65.55
56400;BME280;42298;53.638;9.876;2023-02-18T07:24:38;101091.34;;;10.88;66.10
56400;BME280;42298;53.638;9.876;2023-02-18T07:27:04;101102.31;;;11.07;65.71
56400;BME280;42298;53.638;9.876;2023-02-18T07:29:29;101115.50;;;11.10;65.44
56400;BME280;42298;53.638;9.876;2023-02-18T07:31:54;101096.88;;;11.02;66.08
56400;BME280;42298;53.638;9.876;2023-02-18T07:34:20;101085.25;;;11.05;65.98
56400;BME280;42298;53.638;9.876;2023-02-18T07:36:45;101086.78;;;11.11;65.88
56400;BME280;42298;53.638;9.876;2023-02-18T07:39:11;101083.31;;;11.05;65.85
56400;BME280;42298;53.638;9.876;2023-02-18T07:41:36;101051.25;;;10.82;66.35
56400;BME280;42298;53.638;9.876;2023-02-18T07:44:02;101039.91;;;10.84;66.62
56400;BME280;42298;53.638;9.876;2023-02-18T07:46:27;101039.84;;;11.02;66.52
56400;BME280;42298;53.638;9.876;2023-02-18T07:48:53;101045.34;;;11.16;66.14
56400;BME280;42298;53.638;9.876;2023-02-18T07:51:18;101011.56;;;11.10;65.77
56400;BME280;42298;53.638;9.876;2023-02-18T07:53:43;101025.66;;;11.22;65.18
56400;BME280;42298;53.638;9.876;2023-02-18T07:56:10;101018.41;;;11.26;65.95
56400;BME280;42298;53.638;9.876;2023-02-18T07:58:37;101014.13;;;11.20;66.25
56400;BME280;42298;53.638;9.876;2023-02-18T08:01:08;101013.06;;;11.30;66.27
56400;BME280;42298;53.638;9.876;2023-02-18T08:03:34;101012.28;;;11.29;65.51
56400;BME280;42298;53.638;9.876;2023-02-18T08:06:01;100999.94;;;11.27;65.80
56400;BME280;42298;53.638;9.876;2023-02-18T08:08:28;101004.00;;;11.16;66.16
56400;BME280;42298;53.638;9.876;2023-02-18T08:10:56;101002.38;;;11.15;66.26
56400;BME280;42298;53.638;9.876;2023-02-18T08:13:22;101005.84;;;11.07;66.37
56400;BME280;42298;53.638;9.876;2023-02-18T08:15:48;100979.59;;;10.96;67.06
56400;BME280;42298;53.638;9.876;2023-02-18T08:18:18;101005.53;;;11.22;66.25
56400;BME280;42298;53.638;9.876;2023-02-18T08:20:45;100999.63;;;11.28;66.03
56400;BME280;42298;53.638;9.876;2023-02-18T08:23:14;100992.16;;;11.29;66.63
56400;BME280;42298;53.638;9.876;2023-02-18T08:25:50;101005.81;;;11.47;65.62
56400;BME280;42298;53.638;9.876;2023-02-18T08:28:20;100988.78;;;11.32;65.29
56400;BME280;42298;53.638;9.876;2023-02-18T08:30:48;100991.13;;;11.25;65.95
56400;BME280;42298;53.638;9.876;2023-02-18T08:33:14;100940.94;;;11.01;65.74
56400;BME280;42298;53.638;9.876;2023-02-18T08:35:40;100981.03;;;11.34;66.70
56400;BME280;42298;53.638;9.876;2023-02-18T08:38:06;100950.72;;;11.20;66.09
56400;BME280;42298;53.638;9.876;2023-02-18T08:40:31;100972.41;;;11.49;66.06
56400;BME280;42298;53.638;9.876;2023-02-18T08:42:56;100962.63;;;11.43;65.85
56400;BME280;42298;53.638;9.876;2023-02-18T08:45:22;100953.75;;;11.32;65.85
56400;BME280;42298;53.638;9.876;2023-02-18T08:47:47;100942.41;;;11.34;66.29
56400;BME280;42298;53.638;9.876;2023-02-18T08:50:12;100938.50;;;11.48;66.43
56400;BME280;42298;53.638;9.876;2023-02-18T08:52:38;100929.78;;;11.55;65.68
56400;BME280;42298;53.638;9.876;2023-02-18T08:55:04;100927.84;;;11.55;65.59
56400;BME280;42298;53.638;9.876;2023-02-18T08:57:29;100909.72;;;11.41;65.47
56400;BME280;42298;53.638;9.876;2023-02-18T08:59:54;100911.94;;;11.39;65.59
56400;BME280;42298;53.638;9.876;2023-02-18T09:02:20;100903.91;;;11.29;66.23
56400;BME280;42298;53.638;9.876;2023-02-18T09:04:45;100874.75;;;11.14;66.61
56400;BME280;42298;53.638;9.876;2023-02-18T09:07:10;100870.47;;;11.22;66.47
56400;BME280;42298;53.638;9.876;2023-02-18T09:09:36;100856.78;;;11.17;66.94
56400;BME280;42298;53.638;9.876;2023-02-18T09:12:01;100837.63;;;11.12;66.54
56400;BME280;42298;53.638;9.876;2023-02-18T09:14:26;100858.03;;;11.33;66.79
56400;BME280;42298;53.638;9.876;2023-02-18T09:16:52;100817.19;;;11.13;67.13
56400;BME280;42298;53.638;9.876;2023-02-18T09:19:18;100837.44;;;11.30;66.49
56400;BME280;42298;53.638;9.876;2023-02-18T09:21:43;100839.81;;;11.23;67.52
56400;BME280;42298;53.638;9.876;2023-02-18T09:24:09;100847.72;;;11.38;67.49
56400;BME280;42298;53.638;9.876;2023-02-18T09:26:35;100841.44;;;11.46;67.44
56400;BME280;42298;53.638;9.876;2023-02-18T09:29:00;100799.16;;;11.29;67.34
56400;BME280;42298;53.638;9.876;2023-02-18T09:31:26;100821.47;;;11.63;67.84
56400;BME280;42298;53.638;9.876;2023-02-18T09:33:54;100818.78;;;11.72;67.02
56400;BME280;42298;53.638;9.876;2023-02-18T09:36:20;100811.50;;;11.53;66.62
56400;BME280;42298;53.638;9.876;2023-02-18T09:38:46;100821.59;;;11.58;67.57
56400;BME280;42298;53.638;9.876;2023-02-18T09:41:38;100819.00;;;11.61;67.35
56400;BME280;42298;53.638;9.876;2023-02-18T09:44:13;100814.13;;;11.58;66.89
56400;BME280;42298;53.638;9.876;2023-02-18T09:46:59;100808.81;;;11.62;68.09
56400;BME280;42298;53.638;9.876;2023-02-18T09:49:30;100795.88;;;11.63;67.55
56400;BME280;42298;53.638;9.876;2023-02-18T09:52:10;100768.28;;;11.63;67.03
56400;BME280;42298;53.638;9.876;2023-02-18T09:54:36;100739.72;;;11.45;67.52
56400;BME280;42298;53.638;9.876;2023-02-18T09:57:02;100792.81;;;11.73;67.41
56400;BME280;42298;53.638;9.876;2023-02-18T09:59:29;100744.44;;;11.67;67.35
56400;BME280;42298;53.638;9.876;2023-02-18T10:01:55;100725.63;;;11.46;67.84
56400;BME280;42298;53.638;9.876;2023-02-18T10:04:26;100780.84;;;11.77;67.96
56400;BME280;42298;53.638;9.876;2023-02-18T10:06:55;100755.97;;;11.69;67.65
56400;BME280;42298;53.638;9.876;2023-02-18T10:09:24;100751.13;;;11.74;67.04
56400;BME280;42298;53.638;9.876;2023-02-18T10:12:23;100728.28;;;11.60;67.48
56400;BME280;42298;53.638;9.876;2023-02-18T10:14:54;100724.31;;;11.44;68.09
56400;BME280;42298;53.638;9.876;2023-02-18T10:17:23;100749.66;;;11.77;68.64
56400;BME280;42298;53.638;9.876;2023-02-18T10:19:50;100749.22;;;11.83;67.87
56400;BME280;42298;53.638;9.876;2023-02-18T10:22:17;100733.94;;;11.77;67.04
56400;BME280;42298;53.638;9.876;2023-02-18T10:24:49;100746.16;;;11.85;68.49
56400;BME280;42298;53.638;9.876;2023-02-18T10:27:34;100746.88;;;11.99;68.16
56400;BME280;42298;53.638;9.876;2023-02-18T10:30:26;100724.78;;;11.99;67.17
56400;BME280;42298;53.638;9.876;2023-02-18T10:33:05;100706.44;;;11.94;68.07
56400;BME280;42298;53.638;9.876;2023-02-18T10:35:44;100720.31;;;12.20;67.84
56400;BME280;42298;53.638;9.876;2023-02-18T10:41:07;100714.78;;;12.20;67.77
56400;BME280;42298;53.638;9.876;2023-02-18T10:46:59;100717.25;;;12.38;66.84
56400;BME280;42298;53.638;9.876;2023-02-18T10:49:33;100710.75;;;12.34;67.33
56400;BME280;42298;53.638;9.876;2023-02-18T10:52:05;100701.63;;;12.17;67.22
56400;BME280;42298;53.638;9.876;2023-02-18T10:57:18;100698.22;;;12.20;67.27
56400;BME280;42298;53.638;9.876;2023-02-18T10:59:56;100692.84;;;12.15;67.94
56400;BME280;42298;53.638;9.876;2023-02-18T11:02:23;100681.47;;;12.16;68.44
56400;BME280;42298;53.638;9.876;2023-02-18T11:04:49;100679.88;;;12.24;68.03
56400;BME280;42298;53.638;9.876;2023-02-18T11:07:21;100668.34;;;12.30;67.67
56400;BME280;42298;53.638;9.876;2023-02-18T11:09:49;100664.78;;;12.30;67.09
56400;BME280;42298;53.638;9.876;2023-02-18T11:17:31;100651.63;;;12.27;67.74
56400;BME280;42298;53.638;9.876;2023-02-18T11:19:59;100631.31;;;12.31;68.04
56400;BME280;42298;53.638;9.876;2023-02-18T11:22:31;100627.72;;;12.39;67.87
56400;BME280;42298;53.638;9.876;2023-02-18T11:25:02;100625.78;;;12.48;67.84
56400;BME280;42298;53.638;9.876;2023-02-18T11:27:44;100624.16;;;12.56;68.96
56400;BME280;42298;53.638;9.876;2023-02-18T11:30:19;100614.06;;;12.68;67.49
56400;BME280;42298;53.638;9.876;2023-02-18T11:32:48;100609.84;;;12.71;67.67
56400;BME280;42298;53.638;9.876;2023-02-18T11:35:23;100582.72;;;12.64;68.55
56400;BME280;42298;53.638;9.876;2023-02-18T11:37:50;100588.41;;;12.76;68.70
56400;BME280;42298;53.638;9.876;2023-02-18T11:40:30;100594.84;;;12.97;68.51
56400;BME280;42298;53.638;9.876;2023-02-18T11:43:10;100602.50;;;13.09;69.01
56400;BME280;42298;53.638;9.876;2023-02-18T11:45:39;100602.28;;;13.22;68.99
56400;BME280;42298;53.638;9.876;2023-02-18T11:48:15;100596.59;;;13.27;69.16
56400;BME280;42298;53.638;9.876;2023-02-18T11:50:41;100613.50;;;13.26;68.97
56400;BME280;42298;53.638;9.876;2023-02-18T11:53:28;100607.81;;;13.22;69.88
56400;BME280;42298;53.638;9.876;2023-02-18T11:56:17;100580.41;;;13.00;70.15
56400;BME280;42298;53.638;9.876;2023-02-18T11:58:45;100641.00;;;13.22;70.90
56400;BME280;42298;53.638;9.876;2023-02-18T12:01:42;100601.38;;;13.01;72.74
56400;BME280;42298;53.638;9.876;2023-02-18T12:04:13;100619.03;;;13.26;73.52
56400;BME280;42298;53.638;9.876;2023-02-18T12:09:31;100629.41;;;13.37;72.99
56400;BME280;42298;53.638;9.876;2023-02-18T12:12:07;100629.03;;;13.48;72.64
56400;BME280;42298;53.638;9.876;2023-02-18T12:14:37;100630.34;;;13.41;73.30
56400;BME280;42298;53.638;9.876;2023-02-18T12:22:40;100637.16;;;13.44;72.87
56400;BME280;42298;53.638;9.876;2023-02-18T12:44:16;100662.38;;;13.51;72.21
56400;BME280;42298;53.638;9.876;2023-02-18T12:47:08;100675.56;;;13.54;72.71
56400;BME280;42298;53.638;9.876;2023-02-18T12:55:23;100695.94;;;13.41;72.92
56400;BME280;42298;53.638;9.876;2023-02-18T12:58:18;100687.28;;;13.42;72.48
56400;BME280;42298;53.638;9.876;2023-02-18T13:01:14;100686.53;;;13.33;72.86
56400;BME280;42298;53.638;9.876;2023-02-18T13:14:33;100709.75;;;13.41;72.53
56400;BME280;42298;53.638;9.876;2023-02-18T13:17:04;100661.38;;;13.09;72.52
56400;BME280;42298;53.638;9.876;2023-02-18T13:19:37;100700.31;;;13.51;72.83
56400;BME280;42298;53.638;9.876;2023-02-18T13:22:11;100690.13;;;13.25;72.11
56400;BME280;42298;53.638;9.876;2023-02-18T13:24:38;100729.28;;;13.44;72.63
56400;BME280;42298;53.638;9.876;2023-02-18T13:35:30;100749.31;;;13.41;72.13
56400;BME280;42298;53.638;9.876;2023-02-18T13:40:52;100754.34;;;13.39;72.06
56400;BME280;42298;53.638;9.876;2023-02-18T13:43:31;100768.00;;;13.53;71.97
56400;BME280;42298;53.638;9.876;2023-02-18T13:48:52;100770.94;;;13.57;71.70
56400;BME280;42298;53.638;9.876;2023-02-18T13:51:31;100777.59;;;13.47;71.36
56400;BME280;42298;53.638;9.876;2023-02-18T13:54:04;100783.31;;;13.42;71.24
56400;BME280;42298;53.638;9.876;2023-02-18T13:56:34;100790.31;;;13.39;71.12
56400;BME280;42298;53.638;9.876;2023-02-18T13:59:16;100793.38;;;13.55;70.29
56400;BME280;42298;53.638;9.876;2023-02-18T14:01:47;100788.03;;;13.41;70.69
56400;BME280;42298;53.638;9.876;2023-02-18T14:12:42;100836.28;;;12.67;68.23
56400;BME280;42298;53.638;9.876;2023-02-18T14:17:46;100818.38;;;12.17;68.36
56400;BME280;42298;53.638;9.876;2023-02-18T14:22:51;100860.81;;;11.99;67.77
56400;BME280;42298;53.638;9.876;2023-02-18T14:27:46;100876.81;;;11.44;68.47
56400;BME280;42298;53.638;9.876;2023-02-18T14:30:38;100874.47;;;11.16;68.44
56400;BME280;42298;53.638;9.876;2023-02-18T14:33:04;100884.69;;;11.02;68.41
56400;BME280;42298;53.638;9.876;2023-02-18T14:35:34;100896.75;;;10.92;68.93
56400;BME280;42298;53.638;9.876;2023-02-18T14:40:57;100903.19;;;11.01;67.63
56400;BME280;42298;53.638;9.876;2023-02-18T14:43:47;100907.25;;;11.04;68.07
56400;BME280;42298;53.638;9.876;2023-02-18T14:46:24;100921.03;;;10.90;67.68
56400;BME280;42298;53.638;9.876;2023-02-18T14:51:23;100917.13;;;11.18;66.81
56400;BME280;42298;53.638;9.876;2023-02-18T14:53:50;100912.13;;;11.20;66.29
56400;BME280;42298;53.638;9.876;2023-02-18T14:56:19;100912.03;;;11.12;65.50
56400;BME280;42298;53.638;9.876;2023-02-18T14:58:57;100911.22;;;11.11;65.34
56400;BME280;42298;53.638;9.876;2023-02-18T15:01:30;100905.91;;;11.15;65.21
56400;BME280;42298;53.638;9.876;2023-02-18T15:03:56;100916.56;;;11.30;65.73
56400;BME280;42298;53.638;9.876;2023-02-18T15:06:36;100926.56;;;11.39;65.10
56400;BME280;42298;53.638;9.876;2023-02-18T15:09:17;100931.97;;;11.44;65.05